Extreme weather reports worldwide

Rain

Station
 
Location
 
Name
 
Wind
Knots
Gust
Knots
Vis
SM
Temp/Dew
C
Baro
inHg
METAR
 
CZVL Edmonton, CA Edmonton / Villeneuve Airport 18 32 9 12/8 29.93 CZVL 172006Z AUTO 29018G32KT 9SM -RA FEW028 OVC060 12/08 A2993 RMK SLP146 DENSITY ALT 2500FT
NDJ FTTJ N'Djamena, TD N'Djamena International Airport 21 31 1.55 23/22 29.97 FTTJ 172000Z 06021G31KT 2500 TSRA BKN026 SCT040CB 23/22 Q1015 NOSIG
YTL CYTL Big Trout Lake, CA Big Trout Lake Airport 18 31 7 19/10 29.37 CYTL 172019Z AUTO 28018G31KT 240V310 7SM -RA SCT086 19/10 A2937 RMK PRESRR SLP950 DENSITY ALT 2000FT
YZU CYZU Whitecourt, CA Whitecourt Airport 20 29 15 12/7 29.99 CYZU 172000Z 31020G29KT 15SM -RA OVC026 12/07 A2999 RMK SC8 SLP169 DENSITY ALT 2800FT
SJU TJSJ San Juan, PR Luis Munoz Marin International Airport 18 27 10 28/23 29.97 TJSJ 171956Z 09018G27KT 10SM -RA FEW026 SCT037 SCT048 29/23 A2997 RMK AO2 PK WND 08027/1953 RAB52 SLP149 P0000 T02890233 $

Station
 
Location
 
Name
 
Wind
Knots
Gust
Knots
Vis
SM
Temp/Dew
C
Baro
inHg
METAR
 
FLD KFLD Fond du Lac, US Fond du Lac County Airport 14 24 10 32/12 29.84 KFLD 171953Z AUTO 20014G24KT 10SM -RA CLR 32/13 A2984 RMK AO2 PK WND 22027/1919 SLP101 P0000 T03220128
QBC CYBD Bella Coola, CA Bella Coola Airport 16 23 15 15/10 30.15 CYBD 172000Z 27016G23KT 250V310 15SM -SHRA SCT083 BKN110 15/10 A3015 RMK AC4AC3 CVCTV CLD EMBD SLP210
LCG LECO Culleredo, ES A Coruña Airport 12 23 2.17 13/13 29.94 LECO 172000Z 35012G23KT 300V060 3500 RA BR BKN006 BKN010 13/13 Q1014 NOSIG
DUT PADU Unalaska, US Unalaska Airport 16 22 2.5 8/6 29.85 PADU 171956Z 08016G22KT 2 1/2SM -RA BR BKN006 OVC012 08/07 A2985 RMK AO2 PK WND 08027/1913 SLP113 OBS PK WND 06031/1932 P0000 T00830067 $
ABA UNAA Abakan, RU Abakan Airport 12 21 6.21 17/13 29.79 UNAA 172000Z 23006G11MPS 9999 -TSRA SCT040CB 17/13 Q1009 R20/CLRD65 TEMPO 6000 -TSRA SCT030CB RMK QFE735
ISW KISW Wisconsin Rapids, US Alexander Field South Wood County Airport 15 20 10 32/15 29.81 KISW 171954Z AUTO 22015G20KT 10SM -RA CLR 32/16 A2981 RMK AO2 SLP090 P0000 T03220156
YTH CYTH Thompson, CA Thompson Airport 7 20 4 7/6 29.54 CYTH 172000Z 34007G20KT 4SM -RA BKN005 OVC020 07/06 A2954 RMK SC6SC2 SLP013
YIO CYIO Pond Inlet, CA Pond Inlet Airport 13 19 40 6/1 29.57 CYIO 172000Z 08013G19KT 40SM -RA FEW025 BKN036 OVC055 06/01 A2957 RMK SC1SC6SC2 SC TR SLP020
YMM CYMM Fort McMurray, CA Fort McMurray Airport 10 18 8 12/11 29.79 CYMM 172000Z AUTO 32010G18KT 8SM -RA BKN011 BKN019 OVC029 12/11 A2979 RMK SLP102 DENSITY ALT 1300FT
YAH CYAH La Grande-4, CA La Grande-4 Airport 10 18 9 16/6 29.59 CYAH 172000Z AUTO 23010G18KT 9SM -RA BKN055 OVC076 16/06 A2959 RMK SLP032 DENSITY ALT 1700FT
HUL KHUL Houlton, US Houlton International Airport 9 18 9 19/7 29.78 KHUL 171953Z AUTO 29009G18KT 9SM -RA OVC060 19/08 A2978 RMK AO2 SLP085 P0000 T01940078
YYL CYYL Lynn Lake, CA Lynn Lake Airport 11 17 9 8/7 29.67 CYYL 172000Z AUTO 01011G17KT 9SM -RA BKN012 BKN017 OVC029 08/07 A2967 RMK SLP060
YCO CYCO Kugluktuk, CA Kugluktuk Airport 10 17 15 10/3 29.99 CYCO 172000Z 33010G17KT 15SM -RA FEW020 BKN082 BKN094 10/03 A2999 RMK CU1AC5AC2 CU TR SLP159
KRNH New Richmond, US New Richmond Regional Airport 8 17 10 28/17 29.78 KRNH 172015Z AUTO 31008G17KT 10SM -RA CLR 28/17 A2978 RMK AO2 T02820172
ITO PHTO Hilo, US Hilo International Airport 10 15 1.75 23/20 30.11 PHTO 172015Z 14010G15KT 1 3/4SM -RA SCT020 BKN035 OVC060 23/21 A3011 RMK AO2 RAB13 P0000 T02330206
PRN BKPR Prishtina, XK Priština International Airport 17 6.21 19/10 30.12 BKPR 172000Z 24017KT 9999 -TSRA SCT035CB BKN050 19/10 Q1020 TEMPO 5000 TSRA
MTT MMMT Minatitlán, MX Minatitlán/Coatzacoalcos National Airport 15 2 26/25 29.78 MMMT 171942Z 36015KT 2SM RA OVC015 26/25 A2978 RMK 8/5// HZY
GND TGPY Saint George's, GD Point Salines International Airport 14 6.21 26/23 29.94 TGPY 172000Z 09014KT 9999 -SHRA BKN012CB BKN035 26/23 Q1014 TEMPO SHRA CB-ALQUAD
STT TIST Charlotte Amalie, Harry S. Truman Airport, VI Cyril E. King Airport 14 10 27/23 29.99 TIST 171953Z 11014KT 10SM -RA SCT040 28/24 A2999 RMK AO2 PK WND 11035/1922 RAB23 SLP155 P0003 T02780239 $
SGC USRR Surgut, RU Surgut Airport 14 6.21 14/13 29.50 USRR 172000Z 34007MPS 9999 -SHRA SCT005 OVC015CB 14/13 Q0999 R25/250550 NOSIG RMK OBST OBSC QFE744
YQM CYQM Moncton, CA Greater Moncton Roméo LeBlanc International Airport 13 15 19/11 29.76 CYQM 172016Z 23013KT 15SM -SHRA BKN055TCU BKN080 19/11 A2976 RMK TCU6AC1 SLP080 DENSITY ALT 900FT
YPE CYPE Peace River, CA Peace River Airport 13 15 13/8 29.96 CYPE 172009Z 32013KT 15SM -SHRA BKN023 OVC064 13/08 A2996 RMK SC7SC1 CVCTV CLD EMBD SLP161 DENSITY ALT 2000FT
EHQE 13 0.09 14/14 29.91 EHQE 171955Z AUTO 29013KT 0150 -RA VV000 14/14 Q1013 RERA REDZ
PAZ MMPA Poza Rica, MX El Tajín National Airport 12 4 26/24 29.88 MMPA 171940Z 35012KT 4SM RA OVC012CB 26/24 A2988 RMK 60005 8/3// VRB COND
PDV LBPD Plovdiv, BG Plovdiv International Airport 12 6.21 19/16 30.12 LBPD 172000Z AUTO 36012KT 9999 -TSRA SCT033 OVC044 19/16 Q1020
LMO EGQS Lossiemouth, GB RAF Lossiemouth 11 6.21 13/9 29.94 EGQS 171950Z 31011KT 9999 -RA FEW030 SCT060 BKN080 13/09 Q1014 RMK BLU
ANI PANI Aniak, US Aniak Airport 11 8 10/8 30.09 PANI 171956Z AUTO 14011KT 8SM -RA BKN009 OVC060 10/09 A3009 RMK AO2 CIG 007V013 SLP182 P0003 T01000089
RMQ RCMQ Taichung City, TW Taichung Ching Chuang Kang Airport 11 6.21 27/25 29.73 RCMQ 172000Z 20011KT 9999 -RA SCT010 BKN016 BKN030 27/25 Q1007 RMK A2976 RA AMT 0.5MM
YZG CYZG Salluit, CA Salluit Airport 11 12 4/1 29.54 CYZG 172018Z 28011KT 12SM -RA SCT013 BKN023 OVC035 04/01 A2954 RMK ST3SC2SC3 CIG RAG SLP018
VOGO 11 3.73 28/28 29.68 VOGO 172000Z 24011KT 6000 FEW010 SCT016 FEW025CB OVC080 28/28 Q1005 TEMP0 4000 RA
CNG LFBG Cognac/Châteaubernard, FR Cognac-Châteaubernard (BA 709) Air Base 11 3.73 20/19 29.76 LFBG 172000Z AUTO 12011KT 050V170 6000 -TSRA BKN006/// BKN012/// OVC017/// ///CB 20/19 Q1008 TEMPO VRB15G25KT 3000 TSRA SCT010 BKN025CB BKN050
PAT VEPT Patna, IN Lok Nayak Jayaprakash Airport 11 1.86 24/21 29.47 VEPT 172000Z 11011KT 3000 -RA SCT018 BKN100 24/21 Q0998 NOSIG
YOJ CYOJ High Level, CA High Level Airport 11 10 10/9 29.98 CYOJ 172010Z 35011KT 10SM -RA BKN012 OVC040 10/09 A2998 RMK SC6SC2 SLP166
RAR NCRG Avarua, CK Rarotonga International Airport 11 6.21 23/22 30.03 NCRG 172000Z 07011KT 9999 +RA SCT004 BKN010 OVC080 23/22 Q1017
RKPM Mosulpo, KR Mosulpo Airbase Heliport 11 6.21 20/20 29.62 RKPM 171937Z 12011KT 9999 -RA BKN005 BKN080 20/20 A2962 RMK CIG005
DNK UKDD Dnipropetrovsk, UA Dnipropetrovsk International Airport 10 3.11 19/18 29.97 UKDD 172000Z 03005MPS 340V060 5000 -TSRA BKN004 BKN018CB 19/18 Q1015 R08/090070 TEMPO VRB09G14MPS 1100 SHRA BKN015CB
SYY EGPO Stornoway, GB Stornoway Airport 10 6.21 11/5 29.97 EGPO 171950Z AUTO 28010KT 9999 -RA NCD 11/05 Q1015
TJM USTR Tyumen, RU Roshchino International Airport 10 6.21 15/14 29.68 USTR 172000Z 34005MPS 9999 -SHRA BKN046CB 15/14 Q1005 R30/290060 R21/290060 TEMPO VRB20MPS 2000 TSRA SQ
MDO PAMD Middleton Island, US Middleton Island Airport 10 10 11/8 30.16 PAMD 171951Z AUTO 06010KT 10SM -RA 11/08 A3016 RMK AO2 RAE29B45 SLP199 P0000 T01110083 $
EHPG 10 0.16 14/14 29.91 EHPG 171955Z AUTO 36010KT 320V040 0250 -RA BKN000 14/14 Q1013 RERA REDZ
KIV LUKK Chişinău, MD Chişinău International Airport 9 6.21 20/19 29.97 LUKK 172000Z 35009KT 9999 -SHRA SCT050CB 20/19 Q1015 R08/290152 TEMPO 3000 SHRA BKN010 BKN020CB
CUR TNCC Willemstad, CW Hato International Airport 9 6.21 29/23 29.85 TNCC 172000Z 13009KT 100V160 9999 -SHRA SCT016TCU 29/23 Q1011 NOSIG
YXT CYXT Terrace, CA Northwest Regional Airport Terrace-Kitimat 9 20 13/9 30.16 CYXT 172013Z 19009KT 20SM -RA FEW020 BKN060 OVC100 13/09 A3016 RMK SF1SC6AC2 SF TR SLP220
RDZ LFCR Rodez/Marcillac, FR Rodez-Marcillac Airport 9 6.21 15/15 29.91 LFCR 172000Z AUTO 07009KT 9999 4600 +RA VCTS FEW005/// BKN056/// BKN076/// ///CB 15/15 Q1013 TEMPO NSW
LRH LFBH La Rochelle/Île de Ré, FR La Rochelle-Île de Ré Airport 9 6.21 20/18 29.79 LFBH 172000Z AUTO 02009KT 9999 4500 RA SCT028/// BKN052/// BKN068/// ///CB 20/18 Q1009 TEMPO 31015G25KT 2000 TSRA BKN005 BKN020CB